Time;durP1;ratioP1;P1;durP2;ratioP2;P2;SDS_P1;SDS_P2;PMS_P1;PMS_P2;Temp;Humidity;BMP_temperature;BMP_pressure;BME280_temperature;BME280_humidity;BME280_pressure;Samples;Min_cycle;Max_cycle;Signal;HPM_P1;HPM_P2
2023/06/30 00:00:27;;;;;;;;;;;20.30;83.10;;;;;;7600826;19;19952;-82
2023/06/30 00:02:59;;;;;;;;;;;20.30;83.90;;;;;;7600806;19;19998;-82
2023/06/30 00:05:31;;;;;;;;;;;20.20;85.00;;;;;;7592647;19;20617;-81
2023/06/30 00:08:06;;;;;;;;;;;20.20;82.30;;;;;;7609019;19;19949;-82
2023/06/30 00:10:38;;;;;;;;;;;20.30;81.70;;;;;;7597209;19;19984;-81
2023/06/30 00:13:10;;;;;;;;;;;20.20;83.50;;;;;;7570082;19;20422;-81
2023/06/30 00:15:42;;;;;;;;;;;20.10;86.10;;;;;;7581594;19;19915;-81
2023/06/30 00:18:15;;;;;;;;;;;20.20;87.10;;;;;;7586134;19;20426;-82
2023/06/30 00:20:47;;;;;;;;;;;20.10;87.80;;;;;;7577723;19;19926;-83
2023/06/30 00:23:20;;;;;;;;;;;20.00;87.90;;;;;;7599566;19;20566;-83
2023/06/30 00:25:52;;;;;;;;;;;20.00;88.80;;;;;;7587442;19;19926;-81
2023/06/30 00:28:24;;;;;;;;;;;20.00;87.90;;;;;;7607206;19;19922;-81
2023/06/30 00:30:56;;;;;;;;;;;20.00;88.00;;;;;;7615811;19;19930;-82
2023/06/30 00:33:29;;;;;;;;;;;20.00;87.90;;;;;;7605547;19;19956;-83
2023/06/30 00:36:02;;;;;;;;;;;19.90;88.90;;;;;;7600758;19;19950;-83
2023/06/30 00:38:34;;;;;;;;;;;20.00;89.30;;;;;;7602457;19;19999;-82
2023/06/30 00:41:07;;;;;;;;;;;19.90;88.50;;;;;;7599280;19;20015;-81
2023/06/30 00:43:40;;;;;;;;;;;19.90;88.90;;;;;;7584766;19;19918;-81
2023/06/30 00:46:14;;;;;;;;;;;19.90;89.30;;;;;;7595269;19;19937;-83
2023/06/30 00:48:47;;;;;;;;;;;19.90;90.00;;;;;;7587592;19;19985;-83
2023/06/30 00:51:19;;;;;;;;;;;19.80;89.60;;;;;;7593071;19;19937;-82
2023/06/30 00:53:51;;;;;;;;;;;19.80;89.80;;;;;;7601360;19;19922;-82
2023/06/30 00:56:23;;;;;;;;;;;19.80;90.00;;;;;;7598347;19;19915;-82
2023/06/30 00:58:57;;;;;;;;;;;19.70;90.50;;;;;;7600826;19;19918;-82
2023/06/30 01:01:43;;;;;;;;;;;19.70;90.40;;;;;;7608077;19;19946;-82
2023/06/30 01:04:15;;;;;;;;;;;19.70;90.60;;;;;;7589276;19;20314;-82
2023/06/30 01:06:56;;;;;;;;;;;19.70;90.30;;;;;;7586331;19;19952;-82
2023/06/30 01:09:32;;;;;;;;;;;19.70;90.00;;;;;;7603412;19;19914;-82
2023/06/30 01:12:05;;;;;;;;;;;19.80;90.00;;;;;;7597174;19;19951;-82
2023/06/30 01:14:37;;;;;;;;;;;19.80;87.60;;;;;;7601301;19;19926;-82
2023/06/30 01:17:09;;;;;;;;;;;19.80;89.00;;;;;;7573244;19;20553;-81
2023/06/30 01:19:44;;;;;;;;;;;19.80;88.50;;;;;;7584187;19;19990;-84
2023/06/30 01:22:29;;;;;;;;;;;19.80;90.10;;;;;;7597423;19;19967;-81
2023/06/30 01:25:05;;;;;;;;;;;19.70;90.00;;;;;;7603065;19;19929;-81
2023/06/30 01:27:39;;;;;;;;;;;19.70;91.00;;;;;;7588874;19;19918;-82
2023/06/30 01:30:16;;;;;;;;;;;19.60;90.80;;;;;;7595878;19;20315;-81
2023/06/30 01:32:54;;;;;;;;;;;19.60;90.30;;;;;;7586214;19;20557;-81
2023/06/30 01:35:27;;;;;;;;;;;19.50;91.10;;;;;;7588513;19;19926;-81
2023/06/30 01:38:02;;;;;;;;;;;19.50;90.20;;;;;;7599555;19;19919;-81
2023/06/30 01:40:34;;;;;;;;;;;19.70;88.30;;;;;;7604267;19;20380;-81
2023/06/30 01:43:06;;;;;;;;;;;19.80;87.90;;;;;;7614327;19;19922;-81
2023/06/30 01:45:39;;;;;;;;;;;19.90;87.20;;;;;;7618268;19;19934;-80
2023/06/30 01:48:11;;;;;;;;;;;20.00;87.10;;;;;;7590833;19;19967;-81
2023/06/30 01:50:46;;;;;;;;;;;19.90;87.30;;;;;;7604375;19;20304;-82
2023/06/30 01:53:19;;;;;;;;;;;19.90;87.70;;;;;;7625190;19;19922;-80
2023/06/30 01:55:52;;;;;;;;;;;19.80;88.30;;;;;;7629601;19;19947;-82
2023/06/30 01:58:25;;;;;;;;;;;19.60;89.90;;;;;;7618005;19;19922;-80
2023/06/30 02:00:57;;;;;;;;;;;19.60;89.70;;;;;;7630886;19;19923;-81
2023/06/30 02:03:30;;;;;;;;;;;19.60;90.70;;;;;;7594250;19;20448;-80
2023/06/30 02:06:03;;;;;;;;;;;19.60;90.80;;;;;;7600855;19;20361;-81
2023/06/30 02:08:35;;;;;;;;;;;19.60;91.10;;;;;;7613938;19;20334;-81
2023/06/30 02:11:07;;;;;;;;;;;19.50;91.50;;;;;;7609731;19;19926;-80
2023/06/30 02:13:39;;;;;;;;;;;19.50;91.90;;;;;;7607739;19;19919;-81
2023/06/30 02:16:12;;;;;;;;;;;19.50;92.10;;;;;;7608389;19;19929;-81
2023/06/30 02:18:44;;;;;;;;;;;19.50;92.10;;;;;;7601798;19;19977;-81
2023/06/30 02:21:17;;;;;;;;;;;19.50;92.00;;;;;;7607160;19;20623;-81
2023/06/30 02:23:49;;;;;;;;;;;19.60;92.10;;;;;;7609906;19;19914;-82
2023/06/30 02:26:22;;;;;;;;;;;19.60;92.30;;;;;;7595612;19;19950;-81
2023/06/30 02:28:54;;;;;;;;;;;19.50;92.70;;;;;;7611805;19;19923;-81
2023/06/30 02:31:26;;;;;;;;;;;19.50;93.00;;;;;;7592919;19;21132;-81
2023/06/30 02:33:58;;;;;;;;;;;19.50;93.40;;;;;;7576816;19;20227;-81
2023/06/30 02:36:33;;;;;;;;;;;19.50;93.60;;;;;;7559142;19;25207;-81
2023/06/30 02:39:05;;;;;;;;;;;19.50;93.40;;;;;;7594233;19;20942;-80
2023/06/30 02:41:37;;;;;;;;;;;19.40;93.50;;;;;;7584860;19;19929;-83
2023/06/30 02:44:10;;;;;;;;;;;19.40;93.90;;;;;;7575296;19;20324;-82
2023/06/30 02:46:42;;;;;;;;;;;19.50;94.10;;;;;;7578611;19;22207;-81
2023/06/30 02:49:14;;;;;;;;;;;19.50;94.40;;;;;;7582092;19;21055;-80
2023/06/30 02:51:46;;;;;;;;;;;19.50;95.00;;;;;;7561992;19;19919;-82
2023/06/30 02:54:19;;;;;;;;;;;19.40;94.80;;;;;;7562658;19;19922;-81
2023/06/30 02:56:51;;;;;;;;;;;19.50;95.10;;;;;;7569831;19;19922;-82
2023/06/30 02:59:23;;;;;;;;;;;19.50;95.30;;;;;;7584464;19;19933;-81
2023/06/30 03:01:56;;;;;;;;;;;19.50;95.60;;;;;;7574812;19;19923;-82
2023/06/30 03:04:30;;;;;;;;;;;19.50;95.00;;;;;;7562054;19;19975;-81
2023/06/30 03:07:03;;;;;;;;;;;19.50;95.20;;;;;;7581915;19;19984;-79
2023/06/30 03:09:35;;;;;;;;;;;19.50;95.30;;;;;;7547903;19;19918;-81
2023/06/30 03:12:07;;;;;;;;;;;19.50;95.60;;;;;;7586028;19;19937;-82
2023/06/30 03:14:39;;;;;;;;;;;19.60;95.40;;;;;;7575300;19;20333;-82
2023/06/30 03:17:12;;;;;;;;;;;19.50;96.00;;;;;;7582385;19;20447;-80
2023/06/30 03:19:44;;;;;;;;;;;19.50;96.10;;;;;;7572154;19;19990;-81
2023/06/30 03:22:16;;;;;;;;;;;19.50;96.40;;;;;;7601640;19;19943;-83
2023/06/30 03:24:49;;;;;;;;;;;19.50;96.40;;;;;;7593770;19;19929;-80
2023/06/30 03:27:21;;;;;;;;;;;19.60;95.80;;;;;;7581626;19;19929;-81
2023/06/30 03:29:53;;;;;;;;;;;19.80;96.10;;;;;;7565315;19;19923;-81
2023/06/30 03:32:25;;;;;;;;;;;19.80;96.20;;;;;;7582223;19;20302;-81
2023/06/30 03:34:57;;;;;;;;;;;19.80;96.70;;;;;;7592996;19;19949;-81
2023/06/30 03:37:31;;;;;;;;;;;19.60;97.50;;;;;;7601902;19;20403;-81
2023/06/30 03:40:05;;;;;;;;;;;19.60;98.30;;;;;;7581172;19;19919;-80
2023/06/30 03:42:38;;;;;;;;;;;19.50;99.40;;;;;;7582557;19;19930;-81
2023/06/30 03:45:11;;;;;;;;;;;19.40;99.90;;;;;;7584152;19;19922;-81
2023/06/30 03:47:43;;;;;;;;;;;19.30;99.90;;;;;;7575954;19;20054;-81
2023/06/30 03:50:15;;;;;;;;;;;19.30;99.90;;;;;;7585767;19;20378;-81
2023/06/30 03:52:47;;;;;;;;;;;19.20;99.90;;;;;;7555821;19;21021;-81
2023/06/30 03:55:19;;;;;;;;;;;19.10;99.90;;;;;;7581008;19;19926;-82
2023/06/30 03:57:52;;;;;;;;;;;19.10;99.90;;;;;;7579326;19;19923;-81
2023/06/30 04:00:24;;;;;;;;;;;19.00;99.90;;;;;;7586448;19;19923;-85
2023/06/30 04:02:56;;;;;;;;;;;19.00;99.90;;;;;;7581092;19;20307;-82
2023/06/30 04:05:28;;;;;;;;;;;18.90;99.90;;;;;;7585561;19;19929;-82
2023/06/30 04:08:01;;;;;;;;;;;18.80;99.90;;;;;;7599868;19;20006;-84
2023/06/30 04:10:33;;;;;;;;;;;18.80;99.90;;;;;;7581564;19;20548;-82
2023/06/30 04:13:06;;;;;;;;;;;18.90;99.90;;;;;;7567304;19;20121;-83
2023/06/30 04:15:38;;;;;;;;;;;18.80;99.90;;;;;;7588093;19;20702;-85
2023/06/30 04:18:11;;;;;;;;;;;18.70;99.90;;;;;;7620239;19;19922;-84
2023/06/30 04:20:44;;;;;;;;;;;18.80;99.90;;;;;;7599679;19;20642;-83
2023/06/30 04:23:16;;;;;;;;;;;18.80;99.90;;;;;;7618673;19;19914;-83
2023/06/30 04:25:48;;;;;;;;;;;18.90;99.90;;;;;;7601933;19;19930;-81
2023/06/30 04:28:20;;;;;;;;;;;18.90;99.90;;;;;;7617727;19;20316;-83
2023/06/30 04:30:53;;;;;;;;;;;19.00;99.90;;;;;;7576462;19;20746;-82
2023/06/30 04:33:26;;;;;;;;;;;19.00;99.90;;;;;;7580963;19;19926;-82
2023/06/30 04:35:58;;;;;;;;;;;18.90;99.90;;;;;;7569803;19;19983;-82
2023/06/30 04:38:31;;;;;;;;;;;18.90;99.90;;;;;;7575563;19;21077;-81
2023/06/30 04:41:04;;;;;;;;;;;18.90;99.90;;;;;;7595080;19;19922;-82
2023/06/30 04:43:36;;;;;;;;;;;18.80;99.90;;;;;;7577909;19;19926;-82
2023/06/30 04:50:18;;;;;;;;;;;18.80;99.90;;;;;;7604282;19;19924;-88
2023/06/30 04:53:23;;;;;;;;;;;19.00;99.90;;;;;;7616663;19;19927;-85
2023/06/30 04:56:00;;;;;;;;;;;19.10;99.90;;;;;;7608001;19;19911;-85
2023/06/30 04:58:40;;;;;;;;;;;19.20;99.90;;;;;;7626002;19;19938;-86
2023/06/30 05:01:18;;;;;;;;;;;19.00;99.90;;;;;;7597118;19;22301;-85
2023/06/30 05:04:18;;;;;;;;;;;19.10;99.90;;;;;;7590786;19;19915;-86
2023/06/30 05:07:37;;;;;;;;;;;19.10;99.90;;;;;;7633823;19;19918;-85
2023/06/30 05:10:20;;;;;;;;;;;19.30;99.90;;;;;;7626814;19;20298;-85
2023/06/30 05:12:57;;;;;;;;;;;19.20;99.90;;;;;;7608281;19;19922;-85
2023/06/30 05:15:54;;;;;;;;;;;19.30;99.90;;;;;;7605297;19;19923;-85
2023/06/30 05:18:30;;;;;;;;;;;19.30;99.90;;;;;;7596574;19;19982;-83
2023/06/30 05:21:02;;;;;;;;;;;19.30;99.90;;;;;;7577876;19;19914;-84
2023/06/30 05:23:34;;;;;;;;;;;19.30;99.90;;;;;;7582296;19;19929;-84
2023/06/30 05:26:07;;;;;;;;;;;19.40;99.90;;;;;;7581826;19;20455;-82
2023/06/30 05:28:39;;;;;;;;;;;19.50;99.90;;;;;;7596459;19;19926;-83
2023/06/30 05:31:17;;;;;;;;;;;19.50;99.90;;;;;;7577962;19;20287;-82
2023/06/30 05:33:50;;;;;;;;;;;19.50;99.90;;;;;;7565687;19;20313;-83
2023/06/30 05:36:22;;;;;;;;;;;19.40;99.90;;;;;;7563573;19;19937;-82
2023/06/30 05:38:54;;;;;;;;;;;19.50;99.90;;;;;;7581066;19;19918;-82
2023/06/30 05:41:26;;;;;;;;;;;19.30;99.90;;;;;;7592447;19;19959;-82
2023/06/30 05:43:58;;;;;;;;;;;19.10;99.90;;;;;;7589695;19;19930;-84
2023/06/30 05:46:31;;;;;;;;;;;19.20;99.90;;;;;;7574971;19;19943;-83
2023/06/30 05:49:05;;;;;;;;;;;19.20;99.90;;;;;;7571075;19;19964;-82
2023/06/30 05:51:38;;;;;;;;;;;19.20;99.90;;;;;;7590874;19;19988;-81
2023/06/30 05:54:10;;;;;;;;;;;19.20;99.90;;;;;;7584800;19;19929;-82
2023/06/30 05:56:42;;;;;;;;;;;19.10;99.90;;;;;;7572897;19;19941;-82
2023/06/30 05:59:15;;;;;;;;;;;19.10;99.90;;;;;;7584295;19;19919;-82
2023/06/30 06:01:47;;;;;;;;;;;19.20;99.90;;;;;;7594026;19;19923;-82
2023/06/30 06:04:20;;;;;;;;;;;19.10;99.90;;;;;;7588124;19;20512;-82
2023/06/30 06:06:52;;;;;;;;;;;19.00;99.90;;;;;;7586095;19;19915;-83
2023/06/30 06:09:25;;;;;;;;;;;18.90;99.90;;;;;;7597554;19;20928;-82
2023/06/30 06:11:57;;;;;;;;;;;18.90;99.90;;;;;;7583673;19;19914;-83
2023/06/30 06:14:29;;;;;;;;;;;19.00;99.90;;;;;;7628616;19;19939;-82
2023/06/30 06:17:02;;;;;;;;;;;19.00;99.90;;;;;;7617633;19;19918;-83
2023/06/30 06:19:35;;;;;;;;;;;19.00;99.90;;;;;;7594748;19;19927;-83
2023/06/30 06:22:07;;;;;;;;;;;19.00;99.90;;;;;;7591353;19;19935;-84
2023/06/30 06:24:40;;;;;;;;;;;19.10;99.90;;;;;;7596945;19;19929;-83
2023/06/30 06:27:13;;;;;;;;;;;19.10;99.90;;;;;;7586743;19;19919;-82
2023/06/30 06:29:45;;;;;;;;;;;19.20;99.90;;;;;;7602179;19;19942;-82
2023/06/30 06:32:20;;;;;;;;;;;19.20;99.90;;;;;;7606770;19;19942;-83
2023/06/30 06:34:52;;;;;;;;;;;19.10;99.90;;;;;;7595462;19;19933;-82
2023/06/30 06:37:24;;;;;;;;;;;19.10;99.90;;;;;;7596666;19;19923;-82
2023/06/30 06:39:57;;;;;;;;;;;19.20;99.90;;;;;;7573150;19;19918;-82
2023/06/30 06:42:29;;;;;;;;;;;19.20;99.90;;;;;;7608073;19;19930;-83
2023/06/30 06:45:03;;;;;;;;;;;19.20;99.90;;;;;;7608359;19;19918;-82
2023/06/30 06:47:54;;;;;;;;;;;19.20;99.90;;;;;;7624999;19;19926;-82
2023/06/30 06:50:26;;;;;;;;;;;19.30;99.90;;;;;;7626305;19;19919;-82
2023/06/30 06:52:58;;;;;;;;;;;19.30;99.90;;;;;;7638013;19;19933;-83
2023/06/30 06:55:30;;;;;;;;;;;19.30;99.90;;;;;;7615085;19;19922;-84
2023/06/30 06:58:03;;;;;;;;;;;19.20;99.90;;;;;;7598422;19;20179;-82
2023/06/30 07:00:35;;;;;;;;;;;19.30;99.90;;;;;;7599595;19;19926;-82
2023/06/30 07:03:07;;;;;;;;;;;19.40;99.90;;;;;;7593550;19;19923;-82
2023/06/30 07:05:40;;;;;;;;;;;19.40;99.90;;;;;;7601158;19;19918;-82
2023/06/30 07:08:14;;;;;;;;;;;19.30;99.90;;;;;;7559726;19;19948;-75
2023/06/30 07:10:47;;;;;;;;;;;19.40;99.90;;;;;;7581110;19;19925;-76
2023/06/30 07:13:20;;;;;;;;;;;19.50;99.90;;;;;;7592321;19;19990;-76
2023/06/30 07:15:53;;;;;;;;;;;19.60;99.90;;;;;;7579448;19;19919;-75
2023/06/30 07:18:26;;;;;;;;;;;19.50;99.90;;;;;;7531115;19;20456;-76
2023/06/30 07:20:58;;;;;;;;;;;19.50;99.90;;;;;;7556922;19;19922;-77
2023/06/30 07:23:30;;;;;;;;;;;19.30;99.90;;;;;;7594276;19;19954;-77
2023/06/30 07:26:02;;;;;;;;;;;19.40;99.90;;;;;;7588100;19;19990;-76
2023/06/30 07:28:35;;;;;;;;;;;19.40;99.90;;;;;;7577672;19;19938;-77
2023/06/30 07:31:08;;;;;;;;;;;19.40;99.90;;;;;;7584951;19;19919;-76
2023/06/30 07:33:42;;;;;;;;;;;19.40;99.90;;;;;;7583971;19;19930;-76
2023/06/30 07:36:14;;;;;;;;;;;19.30;99.90;;;;;;7577532;19;19911;-76
2023/06/30 07:38:46;;;;;;;;;;;19.20;99.90;;;;;;7589608;19;19923;-76
2023/06/30 07:41:19;;;;;;;;;;;19.20;99.90;;;;;;7591876;19;19923;-77
2023/06/30 07:43:51;;;;;;;;;;;19.10;99.90;;;;;;7588536;19;19923;-75
2023/06/30 07:46:23;;;;;;;;;;;19.00;99.90;;;;;;7583579;19;20582;-74
2023/06/30 07:48:55;;;;;;;;;;;19.00;99.90;;;;;;7580261;19;19923;-75
2023/06/30 07:51:29;;;;;;;;;;;18.90;99.90;;;;;;7606684;19;19918;-74
2023/06/30 07:54:01;;;;;;;;;;;18.90;99.90;;;;;;7598566;19;19931;-76
2023/06/30 07:56:33;;;;;;;;;;;18.90;99.90;;;;;;7585498;19;19929;-76
2023/06/30 07:59:05;;;;;;;;;;;18.90;99.90;;;;;;7584948;19;21092;-76
2023/06/30 08:01:38;;;;;;;;;;;18.90;99.90;;;;;;7577608;19;19951;-75
2023/06/30 08:04:11;;;;;;;;;;;18.80;99.90;;;;;;7572214;19;19923;-76
2023/06/30 08:06:43;;;;;;;;;;;18.70;99.90;;;;;;7589571;19;19934;-76
2023/06/30 08:09:16;;;;;;;;;;;18.70;99.90;;;;;;7589566;19;19925;-75
2023/06/30 08:11:48;;;;;;;;;;;18.60;99.90;;;;;;7586068;19;20412;-74
2023/06/30 08:14:20;;;;;;;;;;;18.60;99.90;;;;;;7597365;19;19947;-76
2023/06/30 08:16:52;;;;;;;;;;;18.60;99.90;;;;;;7584059;19;19922;-76
2023/06/30 08:19:24;;;;;;;;;;;18.60;99.90;;;;;;7576887;19;19978;-75
2023/06/30 08:22:18;;;;;;;;;;;18.50;99.90;;;;;;7594302;19;19953;-75
2023/06/30 08:24:50;;;;;;;;;;;18.50;99.90;;;;;;7598276;19;19982;-77
2023/06/30 08:27:22;;;;;;;;;;;18.60;99.90;;;;;;7596773;19;19918;-76
2023/06/30 08:29:55;;;;;;;;;;;18.50;99.90;;;;;;7599904;19;20681;-77
2023/06/30 08:32:27;;;;;;;;;;;18.50;99.90;;;;;;7613101;19;19922;-76
2023/06/30 08:34:59;;;;;;;;;;;18.70;99.90;;;;;;7597871;19;20680;-76
2023/06/30 08:37:31;;;;;;;;;;;18.70;99.90;;;;;;7594785;19;21129;-75
2023/06/30 08:40:04;;;;;;;;;;;18.80;99.90;;;;;;7614915;19;19919;-76
2023/06/30 08:42:40;;;;;;;;;;;19.00;99.90;;;;;;7617461;19;19918;-76
2023/06/30 08:45:12;;;;;;;;;;;19.20;99.90;;;;;;7588099;19;19929;-76
2023/06/30 08:47:44;;;;;;;;;;;19.20;99.90;;;;;;7583201;19;19961;-77
2023/06/30 08:50:17;;;;;;;;;;;19.20;99.90;;;;;;7583044;19;19914;-75
2023/06/30 08:52:49;;;;;;;;;;;19.30;99.90;;;;;;7591210;19;19958;-76
2023/06/30 08:55:22;;;;;;;;;;;19.30;99.90;;;;;;7596515;19;19933;-77
2023/06/30 08:57:58;;;;;;;;;;;19.30;99.90;;;;;;7578065;19;20364;-76
2023/06/30 09:00:37;;;;;;;;;;;19.30;99.90;;;;;;7592803;19;22193;-74
2023/06/30 09:03:09;;;;;;;;;;;19.50;99.90;;;;;;7584020;19;21265;-76
2023/06/30 09:05:42;;;;;;;;;;;19.60;99.90;;;;;;7590544;19;19947;-75
2023/06/30 09:08:27;;;;;;;;;;;19.70;99.90;;;;;;7569642;19;19927;-75
2023/06/30 09:10:59;;;;;;;;;;;19.80;99.90;;;;;;7596248;19;20831;-76
2023/06/30 09:13:32;;;;;;;;;;;19.90;99.90;;;;;;7610127;19;20979;-76
2023/06/30 09:16:08;;;;;;;;;;;20.00;99.90;;;;;;7570645;19;19958;-77
2023/06/30 09:18:40;;;;;;;;;;;20.10;99.90;;;;;;7617118;19;19918;-76
2023/06/30 09:21:13;;;;;;;;;;;20.20;99.90;;;;;;7606671;19;19955;-75
2023/06/30 09:23:45;;;;;;;;;;;20.40;99.90;;;;;;7595324;19;19918;-77
2023/06/30 09:26:18;;;;;;;;;;;20.30;99.90;;;;;;7582606;19;19919;-77
2023/06/30 09:28:50;;;;;;;;;;;;;;;;;;7563894;19;19919;-79
2023/06/30 09:31:31;;;;;;;;;;;20.50;99.90;;;;;;7583006;19;19922;-78
2023/06/30 09:34:11;;;;;;;;;;;20.70;99.90;;;;;;7560362;19;20342;-79
2023/06/30 09:36:47;;;;;;;;;;;20.60;99.90;;;;;;7591316;19;19926;-79
2023/06/30 09:39:21;;;;;;;;;;;20.50;99.90;;;;;;7573765;19;19925;-76
2023/06/30 09:41:54;;;;;;;;;;;20.60;99.90;;;;;;7567439;19;19929;-77
2023/06/30 09:44:26;;;;;;;;;;;20.70;99.90;;;;;;7577838;19;20355;-78
2023/06/30 09:46:58;;;;;;;;;;;20.80;99.90;;;;;;7573203;19;21277;-76
2023/06/30 09:49:30;;;;;;;;;;;20.90;99.90;;;;;;7564050;19;19944;-77
2023/06/30 09:52:03;;;;;;;;;;;21.10;99.90;;;;;;7564216;19;19910;-77
2023/06/30 09:54:36;;;;;;;;;;;20.90;99.90;;;;;;7588205;19;19926;-77
2023/06/30 09:57:15;;;;;;;;;;;20.80;99.90;;;;;;7586595;19;19922;-76
2023/06/30 09:59:48;;;;;;;;;;;21.00;99.90;;;;;;7586256;19;20012;-77
2023/06/30 10:02:20;;;;;;;;;;;21.10;99.90;;;;;;7576546;19;19923;-77
2023/06/30 10:04:52;;;;;;;;;;;21.40;99.90;;;;;;7579624;19;19927;-76
2023/06/30 10:07:25;;;;;;;;;;;21.50;99.90;;;;;;7574928;19;19918;-76
2023/06/30 10:09:58;;;;;;;;;;;21.60;99.90;;;;;;7576944;19;21212;-76
2023/06/30 10:12:33;;;;;;;;;;;21.70;99.90;;;;;;7580831;19;19929;-76
2023/06/30 10:15:08;;;;;;;;;;;21.90;99.90;;;;;;7576487;19;19926;-74
2023/06/30 10:17:43;;;;;;;;;;;21.90;99.90;;;;;;7583795;19;19923;-75
2023/06/30 10:20:15;;;;;;;;;;;22.10;99.90;;;;;;7551923;19;19953;-74
2023/06/30 10:22:47;;;;;;;;;;;22.10;99.90;;;;;;7585078;19;19934;-77
2023/06/30 10:25:21;;;;;;;;;;;22.10;99.90;;;;;;7587073;19;20507;-76
2023/06/30 10:27:53;;;;;;;;;;;22.10;99.90;;;;;;7549448;19;19927;-76
2023/06/30 10:30:27;;;;;;;;;;;22.10;99.90;;;;;;7554436;19;19922;-75
2023/06/30 10:32:59;;;;;;;;;;;22.20;99.90;;;;;;7579389;19;20365;-73
2023/06/30 10:35:32;;;;;;;;;;;22.30;99.90;;;;;;7589489;19;19921;-74
2023/06/30 10:38:04;;;;;;;;;;;22.30;99.90;;;;;;7595591;19;19994;-77
2023/06/30 10:40:36;;;;;;;;;;;22.30;99.90;;;;;;7582304;19;19980;-75
2023/06/30 10:43:09;;;;;;;;;;;21.90;99.90;;;;;;7579782;19;19921;-75
2023/06/30 10:46:01;;;;;;;;;;;21.80;99.90;;;;;;7580053;19;19925;-76
2023/06/30 10:48:34;;;;;;;;;;;21.70;99.90;;;;;;7586938;19;20298;-74
2023/06/30 10:51:10;;;;;;;;;;;21.60;99.90;;;;;;7559472;19;19914;-74
2023/06/30 10:53:44;;;;;;;;;;;21.60;99.90;;;;;;7528144;19;19926;-76
2023/06/30 10:56:16;;;;;;;;;;;21.50;99.90;;;;;;7565041;19;20345;-75
2023/06/30 10:58:48;;;;;;;;;;;21.60;99.90;;;;;;7584194;19;20746;-75
2023/06/30 11:01:21;;;;;;;;;;;21.60;99.90;;;;;;7585616;19;20771;-74
2023/06/30 11:03:59;;;;;;;;;;;21.60;99.90;;;;;;7582267;19;19973;-75
2023/06/30 11:06:34;;;;;;;;;;;21.50;99.90;;;;;;7578951;19;19929;-77
2023/06/30 11:09:10;;;;;;;;;;;21.30;99.90;;;;;;7602100;19;19922;-77
2023/06/30 11:11:49;;;;;;;;;;;21.20;99.90;;;;;;7596856;19;20030;-77
2023/06/30 11:14:29;;;;;;;;;;;21.00;99.90;;;;;;7596612;19;19919;-77
2023/06/30 11:17:06;;;;;;;;;;;20.90;99.90;;;;;;7571596;19;19957;-78
2023/06/30 11:19:38;;;;;;;;;;;21.00;99.90;;;;;;7562564;19;19935;-80
2023/06/30 11:22:20;;;;;;;;;;;20.90;99.90;;;;;;7585790;19;19974;-76
2023/06/30 11:24:52;;;;;;;;;;;21.00;99.90;;;;;;7592815;19;19926;-76
2023/06/30 11:27:28;;;;;;;;;;;21.00;99.90;;;;;;7565335;19;22395;-76
2023/06/30 11:30:00;;;;;;;;;;;20.90;99.90;;;;;;7587614;19;19915;-75
2023/06/30 11:32:33;;;;;;;;;;;21.00;99.90;;;;;;7592413;19;19934;-77
2023/06/30 11:35:07;;;;;;;;;;;20.90;99.90;;;;;;7579582;19;19922;-76
2023/06/30 11:37:40;;;;;;;;;;;20.90;99.90;;;;;;7613915;19;19914;-75
2023/06/30 11:40:12;;;;;;;;;;;21.10;99.90;;;;;;7590385;19;19917;-76
2023/06/30 11:42:44;;;;;;;;;;;21.20;99.90;;;;;;7602850;19;19927;-74
2023/06/30 11:45:20;;;;;;;;;;;21.20;99.90;;;;;;7601820;19;19943;-75
2023/06/30 11:47:54;;;;;;;;;;;21.30;99.90;;;;;;7591600;19;20399;-74
2023/06/30 11:50:27;;;;;;;;;;;21.50;99.90;;;;;;7567543;19;19923;-74
2023/06/30 11:53:01;;;;;;;;;;;21.50;99.90;;;;;;7581633;19;19915;-75
2023/06/30 11:55:33;;;;;;;;;;;21.70;99.90;;;;;;7562386;19;19974;-75
2023/06/30 11:58:08;;;;;;;;;;;21.80;99.90;;;;;;7589603;19;20780;-78
2023/06/30 12:00:41;;;;;;;;;;;21.90;99.90;;;;;;7591066;19;19926;-78
2023/06/30 12:03:15;;;;;;;;;;;21.90;99.90;;;;;;7578566;19;20353;-76
2023/06/30 12:05:57;;;;;;;;;;;21.90;99.90;;;;;;7605117;19;19925;-76
2023/06/30 12:08:30;;;;;;;;;;;22.00;99.90;;;;;;7623023;19;20008;-76
2023/06/30 12:11:06;;;;;;;;;;;22.30;99.90;;;;;;7612986;19;19915;-75
2023/06/30 12:13:44;;;;;;;;;;;22.30;99.90;;;;;;7604416;19;21049;-77
2023/06/30 12:16:16;;;;;;;;;;;22.50;99.90;;;;;;7590498;19;19994;-77
2023/06/30 12:18:50;;;;;;;;;;;22.60;99.90;;;;;;7589095;19;20335;-77
2023/06/30 12:21:22;;;;;;;;;;;22.80;99.90;;;;;;7587830;19;19930;-77
2023/06/30 12:23:56;;;;;;;;;;;23.10;99.90;;;;;;7573371;19;20355;-76
2023/06/30 12:26:29;;;;;;;;;;;23.30;99.90;;;;;;7566272;19;19923;-76
2023/06/30 12:29:02;;;;;;;;;;;23.60;99.90;;;;;;7592753;19;20570;-77
2023/06/30 12:31:34;;;;;;;;;;;23.80;99.90;;;;;;7577231;19;20046;-75
2023/06/30 12:34:07;;;;;;;;;;;23.80;99.90;;;;;;7589865;19;19943;-76
2023/06/30 12:36:42;;;;;;;;;;;23.60;99.90;;;;;;7590459;19;19981;-75
2023/06/30 12:39:14;;;;;;;;;;;23.50;99.90;;;;;;7588102;19;19953;-75
2023/06/30 12:41:46;;;;;;;;;;;23.40;99.90;;;;;;7569822;19;19998;-76
2023/06/30 12:44:18;;;;;;;;;;;23.30;99.90;;;;;;7558595;19;19914;-76
2023/06/30 12:46:58;;;;;;;;;;;23.10;99.90;;;;;;7538784;19;19932;-77
2023/06/30 12:49:31;;;;;;;;;;;23.20;99.90;;;;;;7571372;19;19914;-76
2023/06/30 12:52:03;;;;;;;;;;;23.30;99.90;;;;;;7574501;19;19958;-76
2023/06/30 12:54:36;;;;;;;;;;;23.50;99.90;;;;;;7553861;19;20756;-74
2023/06/30 12:57:08;;;;;;;;;;;23.70;99.90;;;;;;7512393;19;19923;-75
2023/06/30 12:59:42;;;;;;;;;;;24.00;99.90;;;;;;7567296;19;19963;-75
2023/06/30 13:02:15;;;;;;;;;;;23.90;99.90;;;;;;7575812;19;20442;-75
2023/06/30 13:04:47;;;;;;;;;;;23.60;99.90;;;;;;7560681;19;19986;-75
2023/06/30 13:07:19;;;;;;;;;;;23.60;99.90;;;;;;7575305;19;20435;-75
2023/06/30 13:09:51;;;;;;;;;;;23.50;99.90;;;;;;7553797;19;19921;-73
2023/06/30 13:12:26;;;;;;;;;;;23.30;99.90;;;;;;7563946;19;19957;-75
2023/06/30 13:14:58;;;;;;;;;;;23.30;99.90;;;;;;7585321;19;19929;-75
2023/06/30 13:17:30;;;;;;;;;;;23.30;99.90;;;;;;7569432;19;20405;-75
2023/06/30 13:20:04;;;;;;;;;;;23.30;99.90;;;;;;7567734;19;19932;-75
2023/06/30 13:22:37;;;;;;;;;;;23.40;99.90;;;;;;7569264;19;19926;-75
2023/06/30 13:25:26;;;;;;;;;;;23.40;99.90;;;;;;7591817;19;20028;-75
2023/06/30 13:27:59;;;;;;;;;;;23.40;99.90;;;;;;7593894;19;19957;-75
2023/06/30 13:30:31;;;;;;;;;;;23.50;99.90;;;;;;7575874;19;19952;-75
2023/06/30 13:33:04;;;;;;;;;;;23.60;99.90;;;;;;7565158;19;19953;-75
2023/06/30 13:35:37;;;;;;;;;;;23.70;99.90;;;;;;7572804;19;19919;-75
2023/06/30 13:38:10;;;;;;;;;;;23.80;99.90;;;;;;7582546;19;22100;-76
2023/06/30 13:40:43;;;;;;;;;;;24.30;99.90;;;;;;7575003;19;19953;-75
2023/06/30 13:43:15;;;;;;;;;;;24.90;99.90;;;;;;7581556;19;19922;-76
2023/06/30 13:45:49;;;;;;;;;;;25.30;99.90;;;;;;7573796;19;19923;-76
2023/06/30 13:48:21;;;;;;;;;;;25.60;99.90;;;;;;7577606;19;19941;-76
2023/06/30 13:50:54;;;;;;;;;;;25.60;99.90;;;;;;7582362;19;20357;-76
2023/06/30 13:53:26;;;;;;;;;;;25.60;99.90;;;;;;7572080;19;19935;-74
2023/06/30 13:55:58;;;;;;;;;;;25.50;99.90;;;;;;7589859;19;20814;-76
2023/06/30 13:58:30;;;;;;;;;;;25.60;99.90;;;;;;7576492;19;19923;-78
2023/06/30 14:01:05;;;;;;;;;;;25.80;99.90;;;;;;7565534;19;19919;-77
2023/06/30 14:03:39;;;;;;;;;;;25.50;99.90;;;;;;7586103;19;19954;-77
2023/06/30 14:06:13;;;;;;;;;;;24.80;99.90;;;;;;7537640;19;20461;-77
2023/06/30 14:08:46;;;;;;;;;;;24.50;99.90;;;;;;7597028;19;19930;-76
2023/06/30 14:11:20;;;;;;;;;;;24.40;99.90;;;;;;7609588;19;19911;-76
2023/06/30 14:13:53;;;;;;;;;;;24.30;99.90;;;;;;7593115;19;21357;-76
2023/06/30 14:16:25;;;;;;;;;;;24.20;99.90;;;;;;7582632;19;19951;-78
2023/06/30 14:19:01;;;;;;;;;;;24.00;99.90;;;;;;7583467;19;19918;-77
2023/06/30 14:21:34;;;;;;;;;;;23.90;99.90;;;;;;7585520;19;19922;-76
2023/06/30 14:24:06;;;;;;;;;;;23.70;99.90;;;;;;7589627;19;19925;-74
2023/06/30 14:26:38;;;;;;;;;;;23.40;99.90;;;;;;7590660;19;20298;-76
2023/06/30 14:29:11;;;;;;;;;;;23.30;99.90;;;;;;7574197;19;19978;-78
2023/06/30 14:31:43;;;;;;;;;;;23.10;99.90;;;;;;7592871;19;19944;-77
2023/06/30 14:34:15;;;;;;;;;;;22.70;99.90;;;;;;7578718;19;19936;-74
2023/06/30 14:36:48;;;;;;;;;;;22.20;99.90;;;;;;7598753;19;19925;-75
2023/06/30 14:39:20;;;;;;;;;;;21.60;99.90;;;;;;7594582;19;19926;-76
2023/06/30 14:41:52;;;;;;;;;;;21.30;99.90;;;;;;7571949;19;19919;-76
2023/06/30 14:44:33;;;;;;;;;;;20.90;99.90;;;;;;7579885;19;19915;-78
2023/06/30 14:47:06;;;;;;;;;;;20.70;99.90;;;;;;7566287;19;19925;-76
2023/06/30 14:49:38;;;;;;;;;;;20.70;99.90;;;;;;7572331;19;19952;-75
2023/06/30 14:52:10;;;;;;;;;;;20.80;99.90;;;;;;7574315;19;20738;-76
2023/06/30 14:54:42;;;;;;;;;;;20.70;99.90;;;;;;7573070;19;19933;-76
2023/06/30 14:57:14;;;;;;;;;;;20.50;99.90;;;;;;7566266;19;19926;-75
2023/06/30 14:59:46;;;;;;;;;;;20.40;99.90;;;;;;7580550;19;20301;-78